Zenken Maru — JG5556 — position and weather

sailwx.info

Track history (hours):
 
Tides and Currents Weather Stations Pressure Air Temp Water Temp Dewpoint Dewpoint Depression Visibility Wind Speed Wind Dir Waves Ship Positions

Zenken Maru

Last reported at 2017-Mar-25 09:27 UTC. Time now 2017-Mar-26 22:58 UTC.
Position N 35°09' E 139°44'.

Length 98 m; draft 7.2 m.

Type: Cargo ship. MMSI: 431100955.

Date/timePositionNaut miles runAvg speedWind from/ knotsBaromVisibWave heightAir tempDewpointWater temp
2017-Mar-25 09:27N 35°09' E 139°44'1010.9
2017-Mar-25 08:33N 35°18' E 139°43'6 5.6
2017-Mar-25 07:28N 35°23' E 139°39'0 0.0
2017-Mar-25 06:28N 35°23' E 139°39'0 0.0
2017-Mar-25 05:31N 35°23' E 139°39'0 0.0
2017-Mar-25 04:31N 35°23' E 139°39'0 0.0
2017-Mar-25 03:31N 35°23' E 139°39'0 0.0
2017-Mar-25 02:31N 35°23' E 139°39'0 0.0
2017-Mar-25 01:31N 35°23' E 139°39'0 0.0
2017-Mar-25 00:33N 35°23' E 139°39'0 0.0
2017-Mar-24 23:33N 35°23' E 139°39'1 0.8
2017-Mar-24 22:33N 35°23' E 139°40'2 2.3
2017-Mar-24 21:33N 35°21' E 139°41'0 0.0
2017-Mar-24 20:31N 35°21' E 139°41'0 0.0
2017-Mar-24 19:31N 35°21' E 139°41'0 0.0
2017-Mar-24 18:31N 35°21' E 139°41'0 0.0
2017-Mar-24 17:31N 35°21' E 139°41'0 0.0
2017-Mar-24 16:31N 35°21' E 139°41'0 0.0
2017-Mar-24 15:31N 35°21' E 139°41'0 0.0
2017-Mar-24 14:31N 35°21' E 139°41'0 0.0
2017-Mar-24 13:31N 35°21' E 139°41'0 0.0
2017-Mar-24 12:31N 35°21' E 139°41'0 0.0
2017-Mar-24 11:31N 35°21' E 139°41'0 0.0
2017-Mar-24 10:31N 35°21' E 139°41'0 0.0
2017-Mar-24 09:31N 35°21' E 139°41'0 0.0
2017-Mar-24 08:31N 35°21' E 139°41'0 0.0
2017-Mar-24 07:31N 35°21' E 139°41'0 0.0
2017-Mar-24 06:31N 35°21' E 139°41'0 0.0
2017-Mar-24 05:31N 35°21' E 139°41'3 2.8
2017-Mar-24 04:33N 35°23' E 139°39'0 0.0
2017-Mar-24 03:33N 35°23' E 139°39'0 0.0
2017-Mar-24 02:33N 35°23' E 139°39'0 0.0
2017-Mar-24 01:33N 35°23' E 139°39'0 0.0
2017-Mar-24 00:30N 35°23' E 139°39'0 0.0
2017-Mar-23 23:33N 35°23' E 139°39'0 0.2
2017-Mar-23 22:33N 35°23' E 139°39'5 4.8
2017-Mar-23 21:33N 35°20' E 139°43'1010.1
2017-Mar-23 20:33N 35°10' E 139°46'20 0.6
2017-Mar-22 09:19N 34°50' E 139°48'811.0
2017-Mar-22 08:33N 34°57' E 139°44'1111.3
2017-Mar-22 07:33N 35°08' E 139°45'1111.1
2017-Mar-22 06:33N 35°19' E 139°43'5 5.0
2017-Mar-22 05:33N 35°23' E 139°39'0 0.0
2017-Mar-22 04:31N 35°23' E 139°39'0 0.0
2017-Mar-22 03:28N 35°23' E 139°39'0 0.0
2017-Mar-22 02:33N 35°23' E 139°39'1 0.7
2017-Mar-22 01:33N 35°23' E 139°40'3 2.6
2017-Mar-22 00:33N 35°21' E 139°41'0 0.0
2017-Mar-21 23:33N 35°21' E 139°41'0 0.0
2017-Mar-21 22:33N 35°21' E 139°41'0 0.0
2017-Mar-21 21:33N 35°21' E 139°41'0 0.0
2017-Mar-21 20:33N 35°21' E 139°41'0 0.0
2017-Mar-21 19:34N 35°21' E 139°41'0 0.0
2017-Mar-21 18:33N 35°21' E 139°41'0 0.1
2017-Mar-21 17:33N 35°21' E 139°41'0 0.0
2017-Mar-21 16:34N 35°21' E 139°41'0 0.0
2017-Mar-21 15:33N 35°21' E 139°41'0 0.0
2017-Mar-21 14:33N 35°21' E 139°41'0 0.0
2017-Mar-21 13:33N 35°21' E 139°41'0 0.0
2017-Mar-21 12:33N 35°21' E 139°41'0 0.0
2017-Mar-21 11:33N 35°21' E 139°41'0 0.0
2017-Mar-21 10:33N 35°21' E 139°41'0 0.0
2017-Mar-21 09:33N 35°21' E 139°41'0 0.0
2017-Mar-21 08:34N 35°21' E 139°41'0 0.0
2017-Mar-21 07:31N 35°21' E 139°41'0 0.0
2017-Mar-21 06:31N 35°21' E 139°41'0 0.0
2017-Mar-21 05:31N 35°21' E 139°41'0 0.0
2017-Mar-21 04:31N 35°21' E 139°41'0 0.0
2017-Mar-21 03:31N 35°21' E 139°41'0 0.0
2017-Mar-21 02:31N 35°21' E 139°41'0 0.0
2017-Mar-21 01:31N 35°21' E 139°41'0 0.0
2017-Mar-21 00:31N 35°21' E 139°41'0 0.1
2017-Mar-20 23:31N 35°21' E 139°41'0 0.0
2017-Mar-20 22:31N 35°21' E 139°41'0 0.1
2017-Mar-20 21:31N 35°21' E 139°41'0 0.0
2017-Mar-20 20:31N 35°21' E 139°41'0 0.1
2017-Mar-20 19:31N 35°21' E 139°41'0 0.0
2017-Mar-20 18:31N 35°21' E 139°41'0 0.0
2017-Mar-20 17:31N 35°21' E 139°41'0 0.0
2017-Mar-20 16:31N 35°21' E 139°41'0 0.0
2017-Mar-20 15:31N 35°21' E 139°41'0 0.0
2017-Mar-20 14:31N 35°21' E 139°41'0 0.0
2017-Mar-20 12:31N 35°21' E 139°41'0 0.0
2017-Mar-20 11:31N 35°21' E 139°41'0 0.0
2017-Mar-20 10:28N 35°21' E 139°41'0 0.0
2017-Mar-20 09:31N 35°21' E 139°41'0 0.0
2017-Mar-20 08:31N 35°21' E 139°41'0 0.0
2017-Mar-20 07:31N 35°21' E 139°41'0 0.1
2017-Mar-20 06:31N 35°21' E 139°41'0 0.0
2017-Mar-20 05:31N 35°21' E 139°41'0 0.0
2017-Mar-20 04:31N 35°21' E 139°41'0 0.0
2017-Mar-20 03:31N 35°21' E 139°41'3 2.9
2017-Mar-20 02:32N 35°23' E 139°39'0 0.0
2017-Mar-20 01:32N 35°23' E 139°39'0 0.0
2017-Mar-20 00:32N 35°23' E 139°39'0 0.0
2017-Mar-19 23:32N 35°23' E 139°39'0 0.0
2017-Mar-19 22:32N 35°23' E 139°39'0 0.0
2017-Mar-19 21:32N 35°23' E 139°39'0 0.0
2017-Mar-19 20:32N 35°23' E 139°39'0 0.0
2017-Mar-19 19:32N 35°23' E 139°39'0 0.0
2017-Mar-19 18:32N 35°23' E 139°39'0 0.0
2017-Mar-19 17:32N 35°23' E 139°39'0 0.0
2017-Mar-19 16:32N 35°23' E 139°39'0 0.0
2017-Mar-19 15:32N 35°23' E 139°39'0 0.0
2017-Mar-19 14:32N 35°23' E 139°39'0 0.0
2017-Mar-19 13:32N 35°23' E 139°39'0 0.0
2017-Mar-19 12:32N 35°23' E 139°39'0 0.0
2017-Mar-19 11:32N 35°23' E 139°39'0 0.0
2017-Mar-19 10:32N 35°23' E 139°39'0 0.0
2017-Mar-19 09:32N 35°23' E 139°39'0 0.0
2017-Mar-19 08:32N 35°23' E 139°39'0 0.0
2017-Mar-19 07:32N 35°23' E 139°39'0 0.0
2017-Mar-19 06:32N 35°23' E 139°39'0 0.0
2017-Mar-19 05:32N 35°23' E 139°39'0 0.0
2017-Mar-19 04:32N 35°23' E 139°39'0 0.0
2017-Mar-19 03:32N 35°23' E 139°39'0 0.0
2017-Mar-19 02:32N 35°23' E 139°39'0 0.0
2017-Mar-19 01:32N 35°23' E 139°39'0 0.0
2017-Mar-19 00:32N 35°23' E 139°39'0 0.0
2017-Mar-18 23:32N 35°23' E 139°39'0 0.0
2017-Mar-18 22:32N 35°23' E 139°39'0 0.0
2017-Mar-18 21:32N 35°23' E 139°39'0 0.0
2017-Mar-18 20:29N 35°23' E 139°39'0 0.0
2017-Mar-18 19:32N 35°23' E 139°39'0 0.0
2017-Mar-18 18:32N 35°23' E 139°39'0 0.0
2017-Mar-18 17:32N 35°23' E 139°39'0 0.0
2017-Mar-18 16:32N 35°23' E 139°39'0 0.0
2017-Mar-18 15:32N 35°23' E 139°39'0 0.0
2017-Mar-18 14:32N 35°23' E 139°39'0 0.0
2017-Mar-18 13:32N 35°23' E 139°39'0 0.0
2017-Mar-18 12:32N 35°23' E 139°39'0 0.0
2017-Mar-18 11:32N 35°23' E 139°39'0 0.0
2017-Mar-18 10:32N 35°23' E 139°39'0 0.0
2017-Mar-18 09:32N 35°23' E 139°39'0 0.0
2017-Mar-18 08:32N 35°23' E 139°39'0 0.0
2017-Mar-18 07:32N 35°23' E 139°39'0 0.0
2017-Mar-18 06:32N 35°23' E 139°39'0 0.0
2017-Mar-18 05:32N 35°23' E 139°39'0 0.0
2017-Mar-18 04:29N 35°23' E 139°39'0 0.0
2017-Mar-18 03:32N 35°23' E 139°39'0 0.0
2017-Mar-18 02:32N 35°23' E 139°39'0 0.0
2017-Mar-18 01:32N 35°23' E 139°39'0 0.0
2017-Mar-18 00:32N 35°23' E 139°39'0 0.0
2017-Mar-17 23:32N 35°23' E 139°39'0 0.3
2017-Mar-17 22:33N 35°23' E 139°39'6 6.0
2017-Mar-17 21:34N 35°19' E 139°44'9 9.3
2017-Mar-17 20:33N 35°10' E 139°45'9 8.9
2017-Mar-17 19:33N 35°01' E 139°43'8 8.0
2017-Mar-17 18:33N 34°53' E 139°46'2 0.1
2017-Mar-16 07:07N 34°51' E 139°47'610.6
2017-Mar-16 06:31N 34°57' E 139°44'1010.6
2017-Mar-16 05:33N 35°07' E 139°45'1110.7
2017-Mar-16 04:34N 35°18' E 139°44'4 4.1
2017-Mar-16 03:33N 35°21' E 139°41'0 0.1
2017-Mar-16 02:31N 35°21' E 139°41'0 0.0
2017-Mar-16 01:31N 35°21' E 139°41'0 0.0
2017-Mar-16 00:28N 35°21' E 139°41'0 0.0
2017-Mar-15 23:31N 35°21' E 139°41'0 0.0
2017-Mar-15 22:31N 35°21' E 139°41'0 0.0
2017-Mar-15 21:31N 35°21' E 139°41'0 0.1
2017-Mar-15 20:31N 35°21' E 139°41'0 0.0
2017-Mar-15 19:31N 35°21' E 139°41'0 0.0
2017-Mar-15 18:31N 35°21' E 139°41'0 0.0
2017-Mar-15 17:31N 35°21' E 139°41'0 0.1
2017-Mar-15 16:31N 35°21' E 139°41'0 0.1
2017-Mar-15 15:31N 35°21' E 139°41'0 0.0
2017-Mar-15 14:31N 35°21' E 139°41'0 0.0
2017-Mar-15 13:31N 35°21' E 139°41'0 0.0
2017-Mar-15 12:31N 35°21' E 139°41'0 0.0
2017-Mar-15 11:28N 35°21' E 139°41'0 0.0
2017-Mar-15 10:31N 35°21' E 139°41'0 0.0
2017-Mar-15 09:31N 35°21' E 139°41'  
Track history (hours):
 
Tides and Currents Weather Stations Pressure Air Temp Water Temp Dewpoint Dewpoint Depression Visibility Wind Speed Wind Dir Waves Ship Positions

Zenken Maru

Last reported at 2017-Mar-25 09:27 UTC. Time now 2017-Mar-26 22:58 UTC.
Position N 35°09' E 139°44'.

Length 98 m; draft 7.2 m.

Type: Cargo ship. MMSI: 431100955.

Date/timePositionNaut miles runAvg speedWind from/ knotsBaromVisibWave heightAir tempDewpointWater temp
2017-Mar-25 09:27N 35°09' E 139°44'1010.9
2017-Mar-25 08:33N 35°18' E 139°43'6 5.6
2017-Mar-25 07:28N 35°23' E 139°39'0 0.0
2017-Mar-25 06:28N 35°23' E 139°39'0 0.0
2017-Mar-25 05:31N 35°23' E 139°39'0 0.0
2017-Mar-25 04:31N 35°23' E 139°39'0 0.0
2017-Mar-25 03:31N 35°23' E 139°39'0 0.0
2017-Mar-25 02:31N 35°23' E 139°39'0 0.0
2017-Mar-25 01:31N 35°23' E 139°39'0 0.0
2017-Mar-25 00:33N 35°23' E 139°39'0 0.0
2017-Mar-24 23:33N 35°23' E 139°39'1 0.8
2017-Mar-24 22:33N 35°23' E 139°40'2 2.3
2017-Mar-24 21:33N 35°21' E 139°41'0 0.0
2017-Mar-24 20:31N 35°21' E 139°41'0 0.0
2017-Mar-24 19:31N 35°21' E 139°41'0 0.0
2017-Mar-24 18:31N 35°21' E 139°41'0 0.0
2017-Mar-24 17:31N 35°21' E 139°41'0 0.0
2017-Mar-24 16:31N 35°21' E 139°41'0 0.0
2017-Mar-24 15:31N 35°21' E 139°41'0 0.0
2017-Mar-24 14:31N 35°21' E 139°41'0 0.0
2017-Mar-24 13:31N 35°21' E 139°41'0 0.0
2017-Mar-24 12:31N 35°21' E 139°41'0 0.0
2017-Mar-24 11:31N 35°21' E 139°41'0 0.0
2017-Mar-24 10:31N 35°21' E 139°41'0 0.0
2017-Mar-24 09:31N 35°21' E 139°41'0 0.0
2017-Mar-24 08:31N 35°21' E 139°41'0 0.0
2017-Mar-24 07:31N 35°21' E 139°41'0 0.0
2017-Mar-24 06:31N 35°21' E 139°41'0 0.0
2017-Mar-24 05:31N 35°21' E 139°41'3 2.8
2017-Mar-24 04:33N 35°23' E 139°39'0 0.0
2017-Mar-24 03:33N 35°23' E 139°39'0 0.0
2017-Mar-24 02:33N 35°23' E 139°39'0 0.0
2017-Mar-24 01:33N 35°23' E 139°39'0 0.0
2017-Mar-24 00:30N 35°23' E 139°39'0 0.0
2017-Mar-23 23:33N 35°23' E 139°39'0 0.2
2017-Mar-23 22:33N 35°23' E 139°39'5 4.8
2017-Mar-23 21:33N 35°20' E 139°43'1010.1
2017-Mar-23 20:33N 35°10' E 139°46'20 0.6
2017-Mar-22 09:19N 34°50' E 139°48'811.0
2017-Mar-22 08:33N 34°57' E 139°44'1111.3
2017-Mar-22 07:33N 35°08' E 139°45'1111.1
2017-Mar-22 06:33N 35°19' E 139°43'5 5.0
2017-Mar-22 05:33N 35°23' E 139°39'0 0.0
2017-Mar-22 04:31N 35°23' E 139°39'0 0.0
2017-Mar-22 03:28N 35°23' E 139°39'0 0.0
2017-Mar-22 02:33N 35°23' E 139°39'1 0.7
2017-Mar-22 01:33N 35°23' E 139°40'3 2.6
2017-Mar-22 00:33N 35°21' E 139°41'0 0.0
2017-Mar-21 23:33N 35°21' E 139°41'0 0.0
2017-Mar-21 22:33N 35°21' E 139°41'0 0.0
2017-Mar-21 21:33N 35°21' E 139°41'0 0.0
2017-Mar-21 20:33N 35°21' E 139°41'0 0.0
2017-Mar-21 19:34N 35°21' E 139°41'0 0.0
2017-Mar-21 18:33N 35°21' E 139°41'0 0.1
2017-Mar-21 17:33N 35°21' E 139°41'0 0.0
2017-Mar-21 16:34N 35°21' E 139°41'0 0.0
2017-Mar-21 15:33N 35°21' E 139°41'0 0.0
2017-Mar-21 14:33N 35°21' E 139°41'0 0.0
2017-Mar-21 13:33N 35°21' E 139°41'0 0.0
2017-Mar-21 12:33N 35°21' E 139°41'0 0.0
2017-Mar-21 11:33N 35°21' E 139°41'0 0.0
2017-Mar-21 10:33N 35°21' E 139°41'0 0.0
2017-Mar-21 09:33N 35°21' E 139°41'0 0.0
2017-Mar-21 08:34N 35°21' E 139°41'0 0.0
2017-Mar-21 07:31N 35°21' E 139°41'0 0.0
2017-Mar-21 06:31N 35°21' E 139°41'0 0.0
2017-Mar-21 05:31N 35°21' E 139°41'0 0.0
2017-Mar-21 04:31N 35°21' E 139°41'0 0.0
2017-Mar-21 03:31N 35°21' E 139°41'0 0.0
2017-Mar-21 02:31N 35°21' E 139°41'0 0.0
2017-Mar-21 01:31N 35°21' E 139°41'0 0.0
2017-Mar-21 00:31N 35°21' E 139°41'0 0.1
2017-Mar-20 23:31N 35°21' E 139°41'0 0.0
2017-Mar-20 22:31N 35°21' E 139°41'0 0.1
2017-Mar-20 21:31N 35°21' E 139°41'0 0.0
2017-Mar-20 20:31N 35°21' E 139°41'0 0.1
2017-Mar-20 19:31N 35°21' E 139°41'0 0.0
2017-Mar-20 18:31N 35°21' E 139°41'0 0.0
2017-Mar-20 17:31N 35°21' E 139°41'0 0.0
2017-Mar-20 16:31N 35°21' E 139°41'0 0.0
2017-Mar-20 15:31N 35°21' E 139°41'0 0.0
2017-Mar-20 14:31N 35°21' E 139°41'0 0.0
2017-Mar-20 12:31N 35°21' E 139°41'0 0.0
2017-Mar-20 11:31N 35°21' E 139°41'0 0.0
2017-Mar-20 10:28N 35°21' E 139°41'0 0.0
2017-Mar-20 09:31N 35°21' E 139°41'0 0.0
2017-Mar-20 08:31N 35°21' E 139°41'0 0.0
2017-Mar-20 07:31N 35°21' E 139°41'0 0.1
2017-Mar-20 06:31N 35°21' E 139°41'0 0.0
2017-Mar-20 05:31N 35°21' E 139°41'0 0.0
2017-Mar-20 04:31N 35°21' E 139°41'0 0.0
2017-Mar-20 03:31N 35°21' E 139°41'3 2.9
2017-Mar-20 02:32N 35°23' E 139°39'0 0.0
2017-Mar-20 01:32N 35°23' E 139°39'0 0.0
2017-Mar-20 00:32N 35°23' E 139°39'0 0.0
2017-Mar-19 23:32N 35°23' E 139°39'0 0.0
2017-Mar-19 22:32N 35°23' E 139°39'0 0.0
2017-Mar-19 21:32N 35°23' E 139°39'0 0.0
2017-Mar-19 20:32N 35°23' E 139°39'0 0.0
2017-Mar-19 19:32N 35°23' E 139°39'0 0.0
2017-Mar-19 18:32N 35°23' E 139°39'0 0.0
2017-Mar-19 17:32N 35°23' E 139°39'0 0.0
2017-Mar-19 16:32N 35°23' E 139°39'0 0.0
2017-Mar-19 15:32N 35°23' E 139°39'0 0.0
2017-Mar-19 14:32N 35°23' E 139°39'0 0.0
2017-Mar-19 13:32N 35°23' E 139°39'0 0.0
2017-Mar-19 12:32N 35°23' E 139°39'0 0.0
2017-Mar-19 11:32N 35°23' E 139°39'0 0.0
2017-Mar-19 10:32N 35°23' E 139°39'0 0.0
2017-Mar-19 09:32N 35°23' E 139°39'0 0.0
2017-Mar-19 08:32N 35°23' E 139°39'0 0.0
2017-Mar-19 07:32N 35°23' E 139°39'0 0.0
2017-Mar-19 06:32N 35°23' E 139°39'0 0.0
2017-Mar-19 05:32N 35°23' E 139°39'0 0.0
2017-Mar-19 04:32N 35°23' E 139°39'0 0.0
2017-Mar-19 03:32N 35°23' E 139°39'0 0.0
2017-Mar-19 02:32N 35°23' E 139°39'0 0.0
2017-Mar-19 01:32N 35°23' E 139°39'0 0.0
2017-Mar-19 00:32N 35°23' E 139°39'0 0.0
2017-Mar-18 23:32N 35°23' E 139°39'0 0.0
2017-Mar-18 22:32N 35°23' E 139°39'0 0.0
2017-Mar-18 21:32N 35°23' E 139°39'0 0.0
2017-Mar-18 20:29N 35°23' E 139°39'0 0.0
2017-Mar-18 19:32N 35°23' E 139°39'0 0.0
2017-Mar-18 18:32N 35°23' E 139°39'0 0.0
2017-Mar-18 17:32N 35°23' E 139°39'0 0.0
2017-Mar-18 16:32N 35°23' E 139°39'0 0.0
2017-Mar-18 15:32N 35°23' E 139°39'0 0.0
2017-Mar-18 14:32N 35°23' E 139°39'0 0.0
2017-Mar-18 13:32N 35°23' E 139°39'0 0.0
2017-Mar-18 12:32N 35°23' E 139°39'0 0.0
2017-Mar-18 11:32N 35°23' E 139°39'0 0.0
2017-Mar-18 10:32N 35°23' E 139°39'0 0.0
2017-Mar-18 09:32N 35°23' E 139°39'0 0.0
2017-Mar-18 08:32N 35°23' E 139°39'0 0.0
2017-Mar-18 07:32N 35°23' E 139°39'0 0.0
2017-Mar-18 06:32N 35°23' E 139°39'0 0.0
2017-Mar-18 05:32N 35°23' E 139°39'0 0.0
2017-Mar-18 04:29N 35°23' E 139°39'0 0.0
2017-Mar-18 03:32N 35°23' E 139°39'0 0.0
2017-Mar-18 02:32N 35°23' E 139°39'0 0.0
2017-Mar-18 01:32N 35°23' E 139°39'0 0.0
2017-Mar-18 00:32N 35°23' E 139°39'0 0.0
2017-Mar-17 23:32N 35°23' E 139°39'0 0.3
2017-Mar-17 22:33N 35°23' E 139°39'6 6.0
2017-Mar-17 21:34N 35°19' E 139°44'9 9.3
2017-Mar-17 20:33N 35°10' E 139°45'9 8.9
2017-Mar-17 19:33N 35°01' E 139°43'8 8.0
2017-Mar-17 18:33N 34°53' E 139°46'2 0.1
2017-Mar-16 07:07N 34°51' E 139°47'610.6
2017-Mar-16 06:31N 34°57' E 139°44'1010.6
2017-Mar-16 05:33N 35°07' E 139°45'1110.7
2017-Mar-16 04:34N 35°18' E 139°44'4 4.1
2017-Mar-16 03:33N 35°21' E 139°41'0 0.1
2017-Mar-16 02:31N 35°21' E 139°41'0 0.0
2017-Mar-16 01:31N 35°21' E 139°41'0 0.0
2017-Mar-16 00:28N 35°21' E 139°41'0 0.0
2017-Mar-15 23:31N 35°21' E 139°41'0 0.0
2017-Mar-15 22:31N 35°21' E 139°41'0 0.0
2017-Mar-15 21:31N 35°21' E 139°41'0 0.1
2017-Mar-15 20:31N 35°21' E 139°41'0 0.0
2017-Mar-15 19:31N 35°21' E 139°41'0 0.0
2017-Mar-15 18:31N 35°21' E 139°41'0 0.0
2017-Mar-15 17:31N 35°21' E 139°41'0 0.1
2017-Mar-15 16:31N 35°21' E 139°41'0 0.1
2017-Mar-15 15:31N 35°21' E 139°41'0 0.0
2017-Mar-15 14:31N 35°21' E 139°41'0 0.0
2017-Mar-15 13:31N 35°21' E 139°41'0 0.0
2017-Mar-15 12:31N 35°21' E 139°41'0 0.0
2017-Mar-15 11:28N 35°21' E 139°41'0 0.0
2017-Mar-15 10:31N 35°21' E 139°41'0 0.0
2017-Mar-15 09:31N 35°21' E 139°41'  

Dump ship's entire track history